Hauptseite
METAR-TAF:

METAR-TAF

Flughäfen :

Chambery / Aix-Les-Bains, Frankreich

Flughafen Chambéry-Savoie

Breite: 45-39N, Länge: 005-53E, Höhe: 235 m

Beobachtung

Neuester Wetterbericht von vor 27 Minuten, um 09:30 UTC
Wind 2 kt aus unterschiedlichen Richtungen
Temperatur 19°C
Luftfeuchtigkeit 49%
Luftdruck 1028 hPa
Sichtweite 10 km oder mehr
keine Wolken unter 1500 m und keine Kumulonimbus oder Gewitterwolken

METAR: LFLB 190930Z AUTO VRB02KT CAVOK 19/08 Q1028 NOSIG

Zeit: 11:57 (09:57 UTC)

Prognose

Neuester Wetterbericht von vor 4 Stunden und 57 Minuten, um 05:00 UTC
Gültige Prognose vom 19 um 06 UTC bis 20 um 06 UTC
Wind 2 kt aus unterschiedlichen Richtungen
Sichtweite 10 km oder mehr
keine Wolken unter 1500 m und keine Kumulonimbus oder Gewitterwolken
Übergehend zu
vom 19 um 08 UTC bis 19 um 10 UTC
Wind 6 kt aus Nord

TAF: LFLB 190500Z 1906/2006 VRB02KT CAVOK BECMG 1908/1910 36006KT

Wetterbeobachtungen und Prognosen von mehr als 4000 Flughäfen (METAR und TAF Bericht).

Die verfügbaren Stationen werden durch gelbe und rote Markierungen auf der Karte dargestellt.

Führen Sie die Maus auf sie, um den Namen der Station zu sehen.

Darauf klicken, um die Beobachtung von Wetterbeobachtungen und Prognosen zu sehen.

Um die Karte zu ändern : klicken Sie auf den grünen Tasten mit einem schwarzen Kreuz Zum Vergrößern, auf den grünen Button mit einem Gedankenstrich zu verkleinern, oder auf die grünen Pfeile für benachbarte Karten.


METAR-TAF: